createdAt,value
2019-01-21T00:01:35.360Z,1.20
2019-01-21T00:04:02.393Z,0.90
2019-01-21T00:06:29.343Z,1.80
2019-01-21T00:08:56.318Z,1.20
2019-01-21T00:11:23.262Z,1.20
2019-01-21T00:13:50.226Z,1.10
2019-01-21T00:16:17.165Z,1.20
2019-01-21T00:18:44.096Z,1.20
2019-01-21T00:21:11.057Z,1.70
2019-01-21T00:23:38.151Z,1.00
2019-01-21T00:26:05.144Z,1.00
2019-01-21T00:28:32.104Z,1.10
2019-01-21T00:30:59.054Z,0.40
2019-01-21T00:33:26.381Z,0.90
2019-01-21T00:35:53.387Z,0.80
2019-01-21T00:38:20.337Z,0.90
2019-01-21T00:40:47.288Z,1.70
2019-01-21T00:43:14.273Z,0.80
2019-01-21T00:45:53.920Z,0.70
2019-01-21T00:48:20.896Z,0.60
2019-01-21T00:50:47.869Z,0.50
2019-01-21T00:53:14.826Z,0.60
2019-01-21T00:55:41.784Z,0.50
2019-01-21T00:58:08.718Z,0.80
2019-01-21T01:00:35.708Z,1.70
2019-01-21T01:03:02.695Z,0.40
2019-01-21T01:05:29.630Z,0.40
2019-01-21T01:07:56.571Z,0.40
2019-01-21T01:10:23.532Z,0.60
2019-01-21T01:12:50.461Z,0.60
2019-01-21T01:15:17.399Z,0.60
2019-01-21T01:17:44.362Z,0.60
2019-01-21T01:20:13.639Z,0.60
2019-01-21T01:22:40.571Z,0.50
2019-01-21T01:25:07.868Z,1.10
2019-01-21T01:27:34.812Z,0.50
2019-01-21T01:30:01.743Z,0.50
2019-01-21T01:32:28.697Z,0.60
2019-01-21T01:34:55.815Z,-0.50
2019-01-21T01:37:22.758Z,0.50
2019-01-21T01:39:49.740Z,0.60
2019-01-21T01:42:16.662Z,0.50
2019-01-21T01:44:43.600Z,0.90
2019-01-21T01:47:10.572Z,0.70
2019-01-21T01:49:37.503Z,0.60
2019-01-21T01:52:04.437Z,0.60
2019-01-21T01:54:31.393Z,0.80
2019-01-21T01:56:58.316Z,0.70
2019-01-21T01:59:25.267Z,0.70
2019-01-21T02:01:52.219Z,0.60
2019-01-21T02:04:19.159Z,0.50
2019-01-21T02:06:46.111Z,0.60
2019-01-21T02:09:13.054Z,1.00
2019-01-21T02:11:39.989Z,0.60
2019-01-21T02:14:06.936Z,0.70
2019-01-21T02:16:33.885Z,0.50
2019-01-21T02:19:00.815Z,0.50
2019-01-21T02:21:27.740Z,0.60
2019-01-21T02:23:59.934Z,0.30
2019-01-21T02:26:27.572Z,0.30
2019-01-21T02:29:04.298Z,-0.60
2019-01-21T02:32:04.373Z,0.30
2019-01-21T02:35:03.380Z,0.30
2019-01-21T02:37:42.097Z,0.40
2019-01-21T02:40:25.146Z,0.30
2019-01-21T02:43:00.452Z,0.30
2019-01-21T02:45:55.752Z,0.40
2019-01-21T02:48:52.218Z,0.20
2019-01-21T02:51:35.477Z,0.20
2019-01-21T02:54:13.471Z,0.00
2019-01-21T02:56:52.722Z,-0.10
2019-01-21T02:59:38.289Z,0.00
2019-01-21T03:02:20.212Z,0.00
2019-01-21T03:04:59.521Z,0.10
2019-01-21T03:07:34.024Z,0.60
2019-01-21T03:10:14.311Z,-0.10
2019-01-21T03:13:09.021Z,-0.20
2019-01-21T03:15:54.279Z,-0.20
2019-01-21T03:18:33.368Z,-0.30
2019-01-21T03:21:39.796Z,-0.30
2019-01-21T03:24:19.058Z,-0.20
2019-01-21T03:27:17.829Z,-0.20
2019-01-21T03:29:59.232Z,-0.40
2019-01-21T03:32:37.435Z,-0.60
2019-01-21T03:35:15.157Z,-0.60
2019-01-21T03:38:11.207Z,-0.50
2019-01-21T03:41:06.615Z,-0.50
2019-01-21T03:43:48.564Z,-0.50
2019-01-21T03:46:37.580Z,-0.60
2019-01-21T03:49:16.635Z,-2.20
2019-01-21T03:52:16.021Z,-0.70
2019-01-21T03:54:47.708Z,-0.90
2019-01-21T03:57:31.476Z,-0.60
2019-01-21T04:00:10.817Z,-0.70
2019-01-21T04:03:06.017Z,-0.60
2019-01-21T04:05:48.371Z,-0.80
2019-01-21T04:08:25.239Z,-3.10
2019-01-21T04:11:26.514Z,-0.90
2019-01-21T04:14:05.337Z,-0.90
2019-01-21T04:16:46.152Z,-1.10
2019-01-21T04:19:41.498Z,-1.10
2019-01-21T04:22:18.377Z,-0.90
2019-01-21T04:24:56.574Z,-1.10
2019-01-21T04:28:05.618Z,-1.10
2019-01-21T04:30:57.093Z,-1.10
2019-01-21T04:33:41.989Z,-1.20
2019-01-21T04:36:34.367Z,-1.30
2019-01-21T04:39:25.492Z,-1.20
2019-01-21T04:42:16.336Z,-1.20
2019-01-21T04:44:56.357Z,-1.20
2019-01-21T04:47:44.172Z,-1.20
2019-01-21T04:50:25.035Z,-1.30
2019-01-21T04:53:07.400Z,-1.40
2019-01-21T04:56:08.974Z,-1.30
2019-01-21T04:58:52.977Z,-1.90
2019-01-21T05:01:49.447Z,-1.40
2019-01-21T05:04:28.266Z,-1.50
2019-01-21T05:07:08.681Z,-1.40
2019-01-21T05:09:49.809Z,-1.50
2019-01-21T05:12:43.497Z,-1.60
2019-01-21T05:15:40.059Z,-2.40
2019-01-21T05:18:41.005Z,-1.50
2019-01-21T05:21:21.879Z,-1.70
2019-01-21T05:24:03.903Z,-1.50
2019-01-21T05:26:53.801Z,-1.70
2019-01-21T05:29:36.688Z,-1.70
2019-01-21T05:32:25.369Z,-1.70
2019-01-21T05:35:22.703Z,-1.80
2019-01-21T05:38:00.857Z,-1.80
2019-01-21T05:40:56.197Z,-1.70
2019-01-21T05:43:39.826Z,-1.70
2019-01-21T05:46:38.037Z,-1.70
2019-01-21T05:49:35.432Z,-1.80
2019-01-21T05:52:48.275Z,-1.70
2019-01-21T05:55:37.438Z,-1.80
2019-01-21T05:58:21.668Z,-1.70
2019-01-21T06:01:16.822Z,-1.70
2019-01-21T06:04:08.108Z,-1.70
2019-01-21T06:06:53.725Z,-2.10
2019-01-21T06:09:32.469Z,-2.00
2019-01-21T06:12:26.526Z,-1.90
2019-01-21T06:15:09.351Z,-1.90
2019-01-21T06:18:05.067Z,-1.40
2019-01-21T06:20:44.909Z,-1.90
2019-01-21T06:23:29.494Z,-1.80
2019-01-21T06:26:12.902Z,-1.90
2019-01-21T06:28:50.396Z,-1.90
2019-01-21T06:31:33.510Z,-1.90
2019-01-21T06:34:12.128Z,-2.00
2019-01-21T06:36:49.959Z,-2.10
2019-01-21T06:39:38.325Z,-2.20
2019-01-21T06:42:51.624Z,-2.20
2019-01-21T06:45:31.636Z,-2.40
2019-01-21T06:48:40.469Z,-0.30
2019-01-21T06:51:22.511Z,-2.40
2019-01-21T06:54:16.417Z,-2.40
2019-01-21T06:57:28.521Z,-2.40
2019-01-21T07:00:09.875Z,-2.40
2019-01-21T07:02:50.676Z,-2.50
2019-01-21T07:05:45.551Z,-2.50
2019-01-21T07:08:35.651Z,-0.60
2019-01-21T07:11:31.963Z,-1.60
2019-01-21T07:14:13.761Z,-2.80
2019-01-21T07:16:59.974Z,-2.80
2019-01-21T07:19:40.035Z,-2.70
2019-01-21T07:22:35.949Z,-4.90
2019-01-21T07:25:14.392Z,-2.80
2019-01-21T07:28:01.087Z,-3.00
2019-01-21T07:30:39.804Z,-2.80
2019-01-21T07:33:33.876Z,-2.70
2019-01-21T07:36:17.947Z,-2.80
2019-01-21T07:39:01.363Z,-2.80
2019-01-21T07:41:40.093Z,-2.80
2019-01-21T07:44:35.164Z,-2.80
2019-01-21T07:47:15.985Z,-2.70
2019-01-21T07:49:56.137Z,-2.60
2019-01-21T07:52:52.036Z,-5.40
2019-01-21T07:55:37.644Z,-2.50
2019-01-21T07:58:29.405Z,-2.50
2019-01-21T08:01:15.071Z,-2.40
2019-01-21T08:04:15.611Z,-2.50
2019-01-21T08:06:58.570Z,-2.60
2019-01-21T08:09:36.936Z,-2.50
2019-01-21T08:12:15.711Z,-2.30
2019-01-21T08:14:52.995Z,-2.20
2019-01-21T08:17:35.703Z,-2.30
2019-01-21T08:20:22.806Z,-2.10
2019-01-21T08:23:06.635Z,-2.00
2019-01-21T08:25:59.946Z,-1.70
2019-01-21T08:28:37.695Z,-1.70
2019-01-21T08:31:12.738Z,-1.50
2019-01-21T08:34:08.109Z,-1.40
2019-01-21T08:36:59.675Z,-1.30
2019-01-21T08:39:48.729Z,0.50
2019-01-21T08:42:43.362Z,-2.50
2019-01-21T08:45:21.580Z,0.40
2019-01-21T08:48:03.637Z,1.00
2019-01-21T08:50:42.328Z,1.70
2019-01-21T08:53:37.732Z,2.20
2019-01-21T08:56:46.556Z,2.70
2019-01-21T08:59:29.085Z,3.40
2019-01-21T09:02:10.891Z,4.00
2019-01-21T09:04:59.725Z,4.40
2019-01-21T09:08:03.152Z,5.00
2019-01-21T09:10:41.950Z,5.30
2019-01-21T09:13:20.454Z,6.00
2019-01-21T09:16:15.991Z,7.60
2019-01-21T09:18:58.404Z,6.70
2019-01-21T09:21:47.379Z,6.00
2019-01-21T09:24:31.424Z,7.10
2019-01-21T09:27:24.933Z,7.30
2019-01-21T09:30:17.818Z,7.20
2019-01-21T09:33:13.530Z,7.50
2019-01-21T09:36:01.500Z,7.00
2019-01-21T09:38:55.204Z,7.40
2019-01-21T09:41:51.288Z,9.00
2019-01-21T09:44:31.976Z,7.40
2019-01-21T09:46:58.761Z,8.60
2019-01-21T09:49:24.988Z,8.60
2019-01-21T09:52:13.407Z,8.90
2019-01-21T09:54:40.594Z,9.80
2019-01-21T09:57:09.525Z,9.00
2019-01-21T09:59:36.508Z,9.30
2019-01-21T10:02:05.896Z,8.70
2019-01-21T10:04:37.568Z,9.50
2019-01-21T10:07:17.203Z,9.30
2019-01-21T10:09:59.225Z,9.50
2019-01-21T10:13:14.401Z,10.00
2019-01-21T10:16:07.955Z,10.20
2019-01-21T10:19:03.346Z,10.60
2019-01-21T10:21:47.836Z,10.50
2019-01-21T10:24:31.460Z,10.90
2019-01-21T10:27:36.555Z,11.60
2019-01-21T10:30:31.515Z,11.20
2019-01-21T10:33:12.707Z,11.20
2019-01-21T10:36:01.667Z,11.10
2019-01-21T10:38:53.405Z,9.20
2019-01-21T10:41:39.074Z,11.00
2019-01-21T10:44:17.304Z,10.00
2019-01-21T10:47:11.893Z,10.80
2019-01-21T10:50:06.135Z,10.80
2019-01-21T10:52:41.088Z,10.80
2019-01-21T10:55:18.956Z,11.00
2019-01-21T10:57:53.896Z,10.10
2019-01-21T11:00:34.325Z,11.70
2019-01-21T11:03:16.036Z,11.60
2019-01-21T11:06:27.121Z,12.10
2019-01-21T11:09:27.128Z,11.60
2019-01-21T11:12:13.011Z,10.60
2019-01-21T11:15:11.031Z,10.90
2019-01-21T11:17:54.749Z,11.00
2019-01-21T11:20:40.205Z,11.20
2019-01-21T11:23:16.589Z,11.90
2019-01-21T11:25:55.311Z,12.80
2019-01-21T11:28:33.511Z,12.80
2019-01-21T11:31:24.962Z,13.40
2019-01-21T11:34:04.565Z,14.00
2019-01-21T11:36:40.933Z,13.70
2019-01-21T11:39:33.876Z,13.70
2019-01-21T11:42:10.668Z,14.00
2019-01-21T11:44:46.968Z,13.70
2019-01-21T11:47:37.473Z,12.30
2019-01-21T11:50:17.949Z,13.50
2019-01-21T11:52:49.877Z,13.60
2019-01-21T11:55:29.797Z,14.00
2019-01-21T11:58:26.072Z,14.30
2019-01-21T12:01:11.758Z,12.90
2019-01-21T12:03:47.286Z,13.90
2019-01-21T12:06:21.421Z,13.80
2019-01-21T12:09:11.666Z,14.10
2019-01-21T12:11:46.331Z,14.10
2019-01-21T12:14:23.533Z,13.90
2019-01-21T12:17:00.507Z,14.40
2019-01-21T12:19:37.809Z,13.90
2019-01-21T12:22:34.971Z,13.00
2019-01-21T12:25:09.821Z,12.80
2019-01-21T12:28:08.126Z,14.10
2019-01-21T12:31:06.443Z,13.80
2019-01-21T12:33:53.688Z,13.90
2019-01-21T12:36:33.712Z,13.60
2019-01-21T12:39:35.041Z,13.10
2019-01-21T12:42:14.981Z,13.70
2019-01-21T12:44:52.748Z,13.80
2019-01-21T12:47:25.081Z,13.80
2019-01-21T12:50:23.923Z,13.40
2019-01-21T12:53:03.347Z,13.50
2019-01-21T12:55:47.808Z,12.60
2019-01-21T12:58:32.475Z,10.20
2019-01-21T13:01:11.507Z,9.40
2019-01-21T13:04:07.120Z,9.30
2019-01-21T13:07:04.603Z,9.00
2019-01-21T13:09:56.677Z,8.40
2019-01-21T13:12:39.650Z,8.10
2019-01-21T13:15:22.875Z,8.10
2019-01-21T13:18:09.169Z,7.50
2019-01-21T13:20:47.144Z,7.10
2019-01-21T13:23:39.016Z,6.80
2019-01-21T13:26:20.274Z,6.90
2019-01-21T13:28:56.579Z,6.50
2019-01-21T13:31:34.054Z,3.70
2019-01-21T13:34:14.141Z,6.40
2019-01-21T13:37:09.238Z,5.90
2019-01-21T13:39:50.534Z,6.00
2019-01-21T13:42:23.408Z,5.00
2019-01-21T13:45:16.963Z,6.30
2019-01-21T13:48:23.339Z,5.80
2019-01-21T13:51:00.745Z,5.70
2019-01-21T13:54:02.904Z,5.40
2019-01-21T13:56:52.385Z,5.40
2019-01-21T13:59:30.712Z,5.20
2019-01-21T14:02:02.662Z,5.00
2019-01-21T14:04:46.693Z,4.80
2019-01-21T14:07:46.085Z,4.60
2019-01-21T14:10:27.318Z,4.50
2019-01-21T14:13:04.001Z,4.40
2019-01-21T14:15:40.524Z,4.50
2019-01-21T14:18:40.481Z,4.50
2019-01-21T14:21:21.148Z,4.50
2019-01-21T14:24:06.112Z,4.50
2019-01-21T14:27:00.684Z,4.40
2019-01-21T14:30:09.807Z,3.70
2019-01-21T14:32:53.592Z,4.30
2019-01-21T14:35:32.825Z,4.10
2019-01-21T14:38:16.248Z,4.00
2019-01-21T14:41:14.238Z,3.50
2019-01-21T14:44:07.496Z,3.70
2019-01-21T14:46:51.552Z,3.70
2019-01-21T14:49:37.342Z,3.40
2019-01-21T14:52:31.180Z,3.50
2019-01-21T14:55:26.017Z,2.00
2019-01-21T14:58:24.928Z,3.40
2019-01-21T15:01:07.834Z,3.30
2019-01-21T15:03:49.034Z,3.30
2019-01-21T15:06:31.335Z,3.20
2019-01-21T15:09:14.587Z,3.10
2019-01-21T15:12:11.213Z,2.20
2019-01-21T15:15:06.869Z,2.90
2019-01-21T15:17:59.944Z,2.50
2019-01-21T15:20:35.944Z,1.40
2019-01-21T15:23:44.031Z,3.80
2019-01-21T15:26:38.865Z,2.00
2019-01-21T15:29:21.285Z,2.60
2019-01-21T15:32:00.204Z,2.50
2019-01-21T15:34:56.348Z,2.40
2019-01-21T15:37:39.792Z,2.40
2019-01-21T15:40:19.541Z,2.40
2019-01-21T15:42:52.645Z,1.70
2019-01-21T15:45:52.997Z,2.00
2019-01-21T15:48:30.713Z,0.70
2019-01-21T15:51:08.730Z,1.20
2019-01-21T15:53:52.399Z,1.70
2019-01-21T15:56:39.684Z,2.10
2019-01-21T15:59:52.836Z,1.20
2019-01-21T16:02:27.804Z,2.00
2019-01-21T16:05:17.968Z,2.10
2019-01-21T16:07:57.385Z,2.10
2019-01-21T16:10:33.473Z,1.30
2019-01-21T16:13:09.513Z,1.90
2019-01-21T16:15:48.212Z,1.20
2019-01-21T16:18:27.989Z,1.40
2019-01-21T16:21:29.472Z,3.00
2019-01-21T16:24:12.825Z,0.30
2019-01-21T16:26:49.649Z,0.10
2019-01-21T16:29:24.380Z,0.80
2019-01-21T16:32:01.196Z,0.70
2019-01-21T16:34:39.569Z,1.60
2019-01-21T16:37:19.457Z,0.90
2019-01-21T16:40:04.420Z,1.50
2019-01-21T16:42:30.666Z,0.80
2019-01-21T16:44:57.676Z,2.60
2019-01-21T16:47:24.725Z,1.60
2019-01-21T16:49:51.765Z,1.50
2019-01-21T16:52:18.765Z,-0.30
2019-01-21T16:54:46.182Z,1.80
2019-01-21T16:57:13.185Z,1.50
2019-01-21T16:59:40.182Z,3.50
2019-01-21T17:02:07.176Z,2.00
2019-01-21T17:04:34.194Z,1.50
2019-01-21T17:07:01.186Z,1.80
2019-01-21T17:09:28.160Z,0.60
2019-01-21T17:11:55.661Z,1.40
2019-01-21T17:14:22.224Z,1.50
2019-01-21T17:16:49.200Z,0.20
2019-01-21T17:19:16.199Z,0.80
2019-01-21T17:21:43.191Z,2.30
2019-01-21T17:24:10.172Z,0.90
2019-01-21T17:26:37.222Z,0.50
2019-01-21T17:29:04.254Z,0.40
2019-01-21T17:31:31.253Z,0.50
2019-01-21T17:33:58.273Z,1.00
2019-01-21T17:36:25.441Z,0.60
2019-01-21T17:38:52.466Z,-0.50
2019-01-21T17:41:19.481Z,0.60
2019-01-21T17:43:46.473Z,0.70
2019-01-21T17:46:13.461Z,0.30
2019-01-21T17:48:40.481Z,0.50
2019-01-21T17:51:07.493Z,0.20
2019-01-21T17:53:34.490Z,2.10
2019-01-21T17:56:01.878Z,0.50
2019-01-21T17:58:28.885Z,0.50
2019-01-21T18:00:55.877Z,0.50
2019-01-21T18:03:22.879Z,1.00
2019-01-21T18:05:50.068Z,0.50
2019-01-21T18:08:17.097Z,2.30
2019-01-21T18:10:44.160Z,0.60
2019-01-21T18:13:11.146Z,0.50
2019-01-21T18:15:38.133Z,-0.30
2019-01-21T18:18:05.323Z,0.50
2019-01-21T18:20:32.272Z,0.60
2019-01-21T18:22:59.280Z,1.80
2019-01-21T18:25:26.278Z,0.70
2019-01-21T18:27:53.300Z,0.70
2019-01-21T18:30:23.186Z,0.60
2019-01-21T18:32:50.200Z,-0.20
2019-01-21T18:35:17.172Z,3.10
2019-01-21T18:37:44.132Z,0.60
2019-01-21T18:40:13.527Z,2.60
2019-01-21T18:42:40.460Z,0.50
2019-01-21T18:45:08.528Z,0.80
2019-01-21T18:47:35.479Z,0.70
2019-01-21T18:50:02.471Z,2.10
2019-01-21T18:52:29.457Z,0.20
2019-01-21T18:54:56.361Z,0.50
2019-01-21T18:57:23.840Z,0.30
2019-01-21T18:59:50.791Z,0.40
2019-01-21T19:02:17.731Z,2.60
2019-01-21T19:04:44.668Z,0.70
2019-01-21T19:07:11.605Z,0.50
2019-01-21T19:09:38.572Z,0.70
2019-01-21T19:12:05.506Z,0.70
2019-01-21T19:14:32.448Z,0.70
2019-01-21T19:16:59.404Z,0.80
2019-01-21T19:19:26.327Z,0.60
2019-01-21T19:21:53.713Z,0.70
2019-01-21T19:24:20.228Z,0.60
2019-01-21T19:26:47.171Z,0.70
2019-01-21T19:29:14.110Z,0.70
2019-01-21T19:31:41.079Z,2.50
2019-01-21T19:34:08.027Z,0.80
2019-01-21T19:36:34.977Z,0.70
2019-01-21T19:39:01.940Z,0.70
2019-01-21T19:41:29.076Z,0.70
2019-01-21T19:43:56.044Z,3.20
2019-01-21T19:46:23.077Z,2.10
2019-01-21T19:48:50.060Z,0.70
2019-01-21T19:51:17.056Z,0.20
2019-01-21T19:53:44.074Z,0.50
2019-01-21T19:56:11.086Z,-0.60
2019-01-21T19:58:40.457Z,1.30
2019-01-21T20:01:07.476Z,0.40
2019-01-21T20:03:34.456Z,-0.20
2019-01-21T20:06:01.437Z,1.90
2019-01-21T20:08:28.485Z,1.10
2019-01-21T20:10:55.527Z,0.40
2019-01-21T20:13:22.498Z,0.40
2019-01-21T20:15:49.522Z,1.40
2019-01-21T20:18:16.560Z,2.40
2019-01-21T20:20:43.538Z,1.80
2019-01-21T20:23:10.538Z,1.30
2019-01-21T20:25:37.513Z,-0.10
2019-01-21T20:28:04.497Z,0.40
2019-01-21T20:30:31.511Z,1.90
2019-01-21T20:32:58.533Z,0.30
2019-01-21T20:35:25.520Z,-1.50
2019-01-21T20:37:52.544Z,0.40
2019-01-21T20:40:21.577Z,0.30
2019-01-21T20:42:48.516Z,2.10
2019-01-21T20:45:15.515Z,0.30
2019-01-21T20:47:42.443Z,0.10
2019-01-21T20:50:13.434Z,0.30
2019-01-21T20:52:40.390Z,0.20
2019-01-21T20:55:07.376Z,0.10
2019-01-21T20:57:34.324Z,0.40
2019-01-21T21:00:02.964Z,0.70
2019-01-21T21:02:29.916Z,0.20
2019-01-21T21:04:56.860Z,0.20
2019-01-21T21:07:23.821Z,0.20
2019-01-21T21:09:50.748Z,0.30
2019-01-21T21:12:17.679Z,2.00
2019-01-21T21:14:44.639Z,0.10
2019-01-21T21:17:11.580Z,0.40
2019-01-21T21:19:38.519Z,0.10
2019-01-21T21:22:05.464Z,0.10
2019-01-21T21:24:32.400Z,0.10
2019-01-21T21:26:59.329Z,1.40
2019-01-21T21:29:26.280Z,0.10
2019-01-21T21:31:53.223Z,0.10
2019-01-21T21:34:20.151Z,-1.80
2019-01-21T21:36:47.111Z,0.40
2019-01-21T21:39:14.055Z,0.10
2019-01-21T21:41:41.023Z,0.00
2019-01-21T21:44:07.968Z,0.00
2019-01-21T21:46:34.920Z,-0.10
2019-01-21T21:49:01.867Z,-0.10
2019-01-21T21:51:28.861Z,-0.80
2019-01-21T21:53:55.812Z,-0.10
2019-01-21T21:56:22.761Z,-0.10
2019-01-21T21:58:49.740Z,-0.10
2019-01-21T22:01:23.865Z,-0.20
2019-01-21T22:03:45.876Z,-0.10
2019-01-21T22:06:12.855Z,-0.20
2019-01-21T22:08:39.784Z,-0.30
2019-01-21T22:11:06.725Z,-1.20
2019-01-21T22:13:33.674Z,-0.30
2019-01-21T22:16:00.613Z,-0.40
2019-01-21T22:18:27.549Z,0.60
2019-01-21T22:20:54.512Z,-0.50
2019-01-21T22:23:21.465Z,-0.60
2019-01-21T22:25:48.391Z,-0.60
2019-01-21T22:28:15.350Z,-0.50
2019-01-21T22:30:42.430Z,-0.70
2019-01-21T22:33:09.421Z,-0.60
2019-01-21T22:35:36.401Z,0.30
2019-01-21T22:38:03.349Z,-0.70
2019-01-21T22:40:30.284Z,-0.70
2019-01-21T22:42:57.585Z,-0.80
2019-01-21T22:45:24.536Z,-0.80
2019-01-21T22:47:51.501Z,-1.00
2019-01-21T22:50:19.247Z,-1.00
2019-01-21T22:52:46.194Z,-1.00
2019-01-21T22:55:13.957Z,-1.10
2019-01-21T22:57:40.949Z,-1.20
2019-01-21T23:00:16.484Z,-2.10
2019-01-21T23:02:44.936Z,-1.20
2019-01-21T23:05:11.880Z,-1.20
2019-01-21T23:07:38.828Z,-1.10
2019-01-21T23:10:06.083Z,-1.20
2019-01-21T23:12:33.016Z,-2.30
2019-01-21T23:14:59.952Z,-1.00
2019-01-21T23:17:27.004Z,-1.20
2019-01-21T23:19:53.941Z,-1.40
2019-01-21T23:22:20.884Z,-1.40
2019-01-21T23:24:47.818Z,-1.50
2019-01-21T23:27:14.743Z,-1.50
2019-01-21T23:29:41.673Z,-1.60
2019-01-21T23:32:08.627Z,-1.60
2019-01-21T23:34:35.569Z,-1.10
2019-01-21T23:37:02.538Z,-1.80
2019-01-21T23:39:29.458Z,-1.90
2019-01-21T23:41:56.392Z,-1.90
2019-01-21T23:44:23.320Z,-1.90
2019-01-21T23:46:50.256Z,-2.00
2019-01-21T23:49:17.189Z,-1.80
2019-01-21T23:51:44.126Z,-1.90
2019-01-21T23:54:11.076Z,-1.90
2019-01-21T23:56:38.005Z,-2.00
2019-01-21T23:59:04.940Z,-1.70
